sensor_id;sensor_type;location;lat;lon;timestamp;temperature;humidity
69543;SHT31;56762;49.494;11.768;2023-02-18T00:01:32;9.40;93.04
69543;SHT31;56762;49.494;11.768;2023-02-18T00:03:59;9.37;93.39
69543;SHT31;56762;49.494;11.768;2023-02-18T00:06:30;9.36;93.27
69543;SHT31;56762;49.494;11.768;2023-02-18T00:08:59;9.44;92.90
69543;SHT31;56762;49.494;11.768;2023-02-18T00:11:30;9.40;92.89
69543;SHT31;56762;49.494;11.768;2023-02-18T00:14:01;9.38;92.78
69543;SHT31;56762;49.494;11.768;2023-02-18T00:16:30;9.41;92.69
69543;SHT31;56762;49.494;11.768;2023-02-18T00:19:00;9.43;92.85
69543;SHT31;56762;49.494;11.768;2023-02-18T00:21:28;9.40;92.47
69543;SHT31;56762;49.494;11.768;2023-02-18T00:23:57;9.40;92.32
69543;SHT31;56762;49.494;11.768;2023-02-18T00:26:24;9.44;91.83
69543;SHT31;56762;49.494;11.768;2023-02-18T00:28:52;9.41;92.64
69543;SHT31;56762;49.494;11.768;2023-02-18T00:31:23;9.41;92.29
69543;SHT31;56762;49.494;11.768;2023-02-18T00:33:52;9.44;91.96
69543;SHT31;56762;49.494;11.768;2023-02-18T00:36:21;9.48;91.97
69543;SHT31;56762;49.494;11.768;2023-02-18T00:38:51;9.48;91.91
69543;SHT31;56762;49.494;11.768;2023-02-18T00:41:25;9.52;91.51
69543;SHT31;56762;49.494;11.768;2023-02-18T00:43:54;9.51;91.46
69543;SHT31;56762;49.494;11.768;2023-02-18T00:46:24;9.54;91.10
69543;SHT31;56762;49.494;11.768;2023-02-18T00:48:53;9.51;90.96
69543;SHT31;56762;49.494;11.768;2023-02-18T00:51:22;9.57;91.07
69543;SHT31;56762;49.494;11.768;2023-02-18T00:53:51;9.61;90.92
69543;SHT31;56762;49.494;11.768;2023-02-18T00:56:19;9.64;91.21
69543;SHT31;56762;49.494;11.768;2023-02-18T00:58:47;9.54;91.09
69543;SHT31;56762;49.494;11.768;2023-02-18T01:01:15;9.59;90.85
69543;SHT31;56762;49.494;11.768;2023-02-18T01:03:45;9.64;90.85
69543;SHT31;56762;49.494;11.768;2023-02-18T01:06:13;9.65;90.68
69543;SHT31;56762;49.494;11.768;2023-02-18T01:08:41;9.62;90.84
69543;SHT31;56762;49.494;11.768;2023-02-18T01:11:10;9.64;90.64
69543;SHT31;56762;49.494;11.768;2023-02-18T01:13:39;9.61;90.75
69543;SHT31;56762;49.494;11.768;2023-02-18T01:16:07;9.64;90.24
69543;SHT31;56762;49.494;11.768;2023-02-18T01:18:36;9.67;90.41
69543;SHT31;56762;49.494;11.768;2023-02-18T01:21:06;9.61;90.49
69543;SHT31;56762;49.494;11.768;2023-02-18T01:23:36;9.62;90.70
69543;SHT31;56762;49.494;11.768;2023-02-18T01:26:04;9.68;90.62
69543;SHT31;56762;49.494;11.768;2023-02-18T01:28:33;9.55;91.04
69543;SHT31;56762;49.494;11.768;2023-02-18T01:31:04;9.47;91.49
69543;SHT31;56762;49.494;11.768;2023-02-18T01:33:33;9.50;92.06
69543;SHT31;56762;49.494;11.768;2023-02-18T01:36:01;9.55;92.39
69543;SHT31;56762;49.494;11.768;2023-02-18T01:38:30;9.50;92.76
69543;SHT31;56762;49.494;11.768;2023-02-18T01:40:58;9.51;93.17
69543;SHT31;56762;49.494;11.768;2023-02-18T01:43:26;9.44;93.64
69543;SHT31;56762;49.494;11.768;2023-02-18T01:46:04;9.40;93.88
69543;SHT31;56762;49.494;11.768;2023-02-18T01:48:35;9.46;93.91
69543;SHT31;56762;49.494;11.768;2023-02-18T01:51:09;9.34;94.05
69543;SHT31;56762;49.494;11.768;2023-02-18T01:53:44;9.37;94.08
69543;SHT31;56762;49.494;11.768;2023-02-18T01:56:16;9.36;94.11
69543;SHT31;56762;49.494;11.768;2023-02-18T01:58:46;9.34;93.64
69543;SHT31;56762;49.494;11.768;2023-02-18T02:01:15;9.36;94.03
69543;SHT31;56762;49.494;11.768;2023-02-18T02:03:42;9.30;94.41
69543;SHT31;56762;49.494;11.768;2023-02-18T02:06:15;9.30;94.75
69543;SHT31;56762;49.494;11.768;2023-02-18T02:08:46;9.26;94.80
69543;SHT31;56762;49.494;11.768;2023-02-18T02:11:23;9.27;94.49
69543;SHT31;56762;49.494;11.768;2023-02-18T02:14:07;9.22;94.59
69543;SHT31;56762;49.494;11.768;2023-02-18T02:16:42;9.27;94.77
69543;SHT31;56762;49.494;11.768;2023-02-18T02:19:33;9.26;94.96
69543;SHT31;56762;49.494;11.768;2023-02-18T02:25:14;9.26;94.57
69543;SHT31;56762;49.494;11.768;2023-02-18T02:28:14;9.23;95.11
69543;SHT31;56762;49.494;11.768;2023-02-18T02:30:58;9.24;94.92
69543;SHT31;56762;49.494;11.768;2023-02-18T02:33:50;9.13;94.77
69543;SHT31;56762;49.494;11.768;2023-02-18T02:36:25;9.17;94.97
69543;SHT31;56762;49.494;11.768;2023-02-18T02:38:57;9.31;94.09
69543;SHT31;56762;49.494;11.768;2023-02-18T02:41:42;9.27;94.39
69543;SHT31;56762;49.494;11.768;2023-02-18T02:44:18;9.30;94.49
69543;SHT31;56762;49.494;11.768;2023-02-18T02:46:48;9.24;94.97
69543;SHT31;56762;49.494;11.768;2023-02-18T02:49:32;9.20;94.79
69543;SHT31;56762;49.494;11.768;2023-02-18T02:52:05;9.19;95.26
69543;SHT31;56762;49.494;11.768;2023-02-18T02:54:35;9.22;95.14
69543;SHT31;56762;49.494;11.768;2023-02-18T02:57:36;9.22;95.16
69543;SHT31;56762;49.494;11.768;2023-02-18T03:00:00;9.13;95.54
69543;SHT31;56762;49.494;11.768;2023-02-18T03:02:36;9.19;95.30
69543;SHT31;56762;49.494;11.768;2023-02-18T03:05:25;9.15;95.27
69543;SHT31;56762;49.494;11.768;2023-02-18T03:08:06;9.19;95.64
69543;SHT31;56762;49.494;11.768;2023-02-18T03:10:43;9.23;95.35
69543;SHT31;56762;49.494;11.768;2023-02-18T03:13:17;9.19;95.52
69543;SHT31;56762;49.494;11.768;2023-02-18T03:15:55;9.16;95.57
69543;SHT31;56762;49.494;11.768;2023-02-18T03:18:30;9.15;95.69
69543;SHT31;56762;49.494;11.768;2023-02-18T03:21:03;9.06;95.20
69543;SHT31;56762;49.494;11.768;2023-02-18T03:23:37;9.09;95.67
69543;SHT31;56762;49.494;11.768;2023-02-18T03:26:07;9.10;95.68
69543;SHT31;56762;49.494;11.768;2023-02-18T03:28:37;9.07;95.86
69543;SHT31;56762;49.494;11.768;2023-02-18T03:31:09;9.12;95.89
69543;SHT31;56762;49.494;11.768;2023-02-18T03:33:42;9.12;96.06
69543;SHT31;56762;49.494;11.768;2023-02-18T03:36:11;9.13;95.92
69543;SHT31;56762;49.494;11.768;2023-02-18T03:38:43;9.10;96.14
69543;SHT31;56762;49.494;11.768;2023-02-18T03:41:12;9.07;95.91
69543;SHT31;56762;49.494;11.768;2023-02-18T03:43:48;9.06;96.11
69543;SHT31;56762;49.494;11.768;2023-02-18T03:46:17;9.10;96.13
69543;SHT31;56762;49.494;11.768;2023-02-18T03:48:45;9.09;96.31
69543;SHT31;56762;49.494;11.768;2023-02-18T03:51:13;9.05;96.42
69543;SHT31;56762;49.494;11.768;2023-02-18T03:53:41;9.02;96.23
69543;SHT31;56762;49.494;11.768;2023-02-18T03:56:08;9.00;96.49
69543;SHT31;56762;49.494;11.768;2023-02-18T03:58:37;9.06;96.33
69543;SHT31;56762;49.494;11.768;2023-02-18T04:01:05;9.07;96.24
69543;SHT31;56762;49.494;11.768;2023-02-18T04:03:34;9.16;95.75
69543;SHT31;56762;49.494;11.768;2023-02-18T04:06:02;9.12;96.02
69543;SHT31;56762;49.494;11.768;2023-02-18T04:08:31;9.24;95.25
69543;SHT31;56762;49.494;11.768;2023-02-18T04:10:58;9.16;95.59
69543;SHT31;56762;49.494;11.768;2023-02-18T04:13:27;9.06;95.48
69543;SHT31;56762;49.494;11.768;2023-02-18T04:15:56;9.05;96.00
69543;SHT31;56762;49.494;11.768;2023-02-18T04:18:23;9.05;95.91
69543;SHT31;56762;49.494;11.768;2023-02-18T04:20:53;9.05;96.42
69543;SHT31;56762;49.494;11.768;2023-02-18T04:23:21;9.12;96.05
69543;SHT31;56762;49.494;11.768;2023-02-18T04:25:49;9.15;95.66
69543;SHT31;56762;49.494;11.768;2023-02-18T04:28:17;9.16;95.98
69543;SHT31;56762;49.494;11.768;2023-02-18T04:30:46;9.19;96.00
69543;SHT31;56762;49.494;11.768;2023-02-18T04:33:14;9.19;94.89
69543;SHT31;56762;49.494;11.768;2023-02-18T04:35:42;9.16;95.70
69543;SHT31;56762;49.494;11.768;2023-02-18T04:38:12;9.22;95.53
69543;SHT31;56762;49.494;11.768;2023-02-18T04:40:39;9.17;95.76
69543;SHT31;56762;49.494;11.768;2023-02-18T04:43:07;9.10;95.81
69543;SHT31;56762;49.494;11.768;2023-02-18T04:45:37;9.09;96.12
69543;SHT31;56762;49.494;11.768;2023-02-18T04:48:05;9.09;95.82
69543;SHT31;56762;49.494;11.768;2023-02-18T04:50:33;9.06;96.18
69543;SHT31;56762;49.494;11.768;2023-02-18T04:53:01;9.07;96.14
69543;SHT31;56762;49.494;11.768;2023-02-18T04:55:30;9.07;96.20
69543;SHT31;56762;49.494;11.768;2023-02-18T04:57:58;9.13;96.11
69543;SHT31;56762;49.494;11.768;2023-02-18T05:00:26;9.16;95.67
69543;SHT31;56762;49.494;11.768;2023-02-18T05:02:55;9.13;95.64
69543;SHT31;56762;49.494;11.768;2023-02-18T05:05:23;9.16;95.79
69543;SHT31;56762;49.494;11.768;2023-02-18T05:07:50;9.16;95.96
69543;SHT31;56762;49.494;11.768;2023-02-18T05:10:18;9.13;96.08
69543;SHT31;56762;49.494;11.768;2023-02-18T05:12:48;9.12;96.23
69543;SHT31;56762;49.494;11.768;2023-02-18T05:15:16;9.09;96.12
69543;SHT31;56762;49.494;11.768;2023-02-18T05:17:44;9.07;96.15
69543;SHT31;56762;49.494;11.768;2023-02-18T05:20:12;9.03;96.20
69543;SHT31;56762;49.494;11.768;2023-02-18T05:22:40;9.07;96.23
69543;SHT31;56762;49.494;11.768;2023-02-18T05:25:08;9.06;96.39
69543;SHT31;56762;49.494;11.768;2023-02-18T05:27:36;9.02;96.29
69543;SHT31;56762;49.494;11.768;2023-02-18T05:30:07;9.07;96.35
69543;SHT31;56762;49.494;11.768;2023-02-18T05:32:36;9.15;96.07
69543;SHT31;56762;49.494;11.768;2023-02-18T05:35:04;9.13;95.60
69543;SHT31;56762;49.494;11.768;2023-02-18T05:37:32;9.27;95.41
69543;SHT31;56762;49.494;11.768;2023-02-18T05:40:00;9.13;95.84
69543;SHT31;56762;49.494;11.768;2023-02-18T05:42:27;9.15;95.76
69543;SHT31;56762;49.494;11.768;2023-02-18T05:44:55;9.10;96.13
69543;SHT31;56762;49.494;11.768;2023-02-18T05:47:25;9.03;95.95
69543;SHT31;56762;49.494;11.768;2023-02-18T05:49:53;9.09;95.69
69543;SHT31;56762;49.494;11.768;2023-02-18T05:52:21;9.15;95.60
69543;SHT31;56762;49.494;11.768;2023-02-18T05:54:49;9.20;95.37
69543;SHT31;56762;49.494;11.768;2023-02-18T05:57:17;9.12;95.87
69543;SHT31;56762;49.494;11.768;2023-02-18T05:59:45;9.07;95.91
69543;SHT31;56762;49.494;11.768;2023-02-18T06:02:14;9.05;95.85
69543;SHT31;56762;49.494;11.768;2023-02-18T06:04:43;9.00;96.07
69543;SHT31;56762;49.494;11.768;2023-02-18T06:07:10;8.97;96.14
69543;SHT31;56762;49.494;11.768;2023-02-18T06:09:39;9.05;96.23
69543;SHT31;56762;49.494;11.768;2023-02-18T06:12:07;9.06;95.90
69543;SHT31;56762;49.494;11.768;2023-02-18T06:14:34;9.07;96.23
69543;SHT31;56762;49.494;11.768;2023-02-18T06:17:02;9.03;95.83
69543;SHT31;56762;49.494;11.768;2023-02-18T06:19:30;9.00;96.16
69543;SHT31;56762;49.494;11.768;2023-02-18T06:21:59;8.97;96.21
69543;SHT31;56762;49.494;11.768;2023-02-18T06:24:27;8.95;95.85
69543;SHT31;56762;49.494;11.768;2023-02-18T06:26:55;8.99;96.14
69543;SHT31;56762;49.494;11.768;2023-02-18T06:29:23;9.02;95.80
69543;SHT31;56762;49.494;11.768;2023-02-18T06:31:51;8.95;96.18
69543;SHT31;56762;49.494;11.768;2023-02-18T06:34:18;8.97;96.38
69543;SHT31;56762;49.494;11.768;2023-02-18T06:36:47;9.00;96.29
69543;SHT31;56762;49.494;11.768;2023-02-18T06:39:16;8.97;96.44
69543;SHT31;56762;49.494;11.768;2023-02-18T06:41:44;8.96;96.55
69543;SHT31;56762;49.494;11.768;2023-02-18T06:44:12;8.96;96.33
69543;SHT31;56762;49.494;11.768;2023-02-18T06:46:43;9.00;95.07
69543;SHT31;56762;49.494;11.768;2023-02-18T06:49:10;8.99;95.91
69543;SHT31;56762;49.494;11.768;2023-02-18T06:51:39;8.97;95.95
69543;SHT31;56762;49.494;11.768;2023-02-18T06:54:07;9.05;96.07
69543;SHT31;56762;49.494;11.768;2023-02-18T06:56:37;9.06;95.86
69543;SHT31;56762;49.494;11.768;2023-02-18T06:59:04;9.05;95.93
69543;SHT31;56762;49.494;11.768;2023-02-18T07:01:33;9.07;95.94
69543;SHT31;56762;49.494;11.768;2023-02-18T07:04:01;9.07;95.68
69543;SHT31;56762;49.494;11.768;2023-02-18T07:06:29;9.20;95.11
69543;SHT31;56762;49.494;11.768;2023-02-18T07:08:57;9.19;94.69
69543;SHT31;56762;49.494;11.768;2023-02-18T07:11:25;9.16;95.13
69543;SHT31;56762;49.494;11.768;2023-02-18T07:13:54;9.17;94.45
69543;SHT31;56762;49.494;11.768;2023-02-18T07:16:22;9.12;94.73
69543;SHT31;56762;49.494;11.768;2023-02-18T07:18:50;9.09;95.16
69543;SHT31;56762;49.494;11.768;2023-02-18T07:21:17;9.16;94.90
69543;SHT31;56762;49.494;11.768;2023-02-18T07:23:45;9.22;94.15
69543;SHT31;56762;49.494;11.768;2023-02-18T07:26:13;9.28;94.12
69543;SHT31;56762;49.494;11.768;2023-02-18T07:28:41;9.28;93.80
69543;SHT31;56762;49.494;11.768;2023-02-18T07:31:11;9.22;93.52
69543;SHT31;56762;49.494;11.768;2023-02-18T07:33:39;9.28;93.81
69543;SHT31;56762;49.494;11.768;2023-02-18T07:36:08;9.28;93.87
69543;SHT31;56762;49.494;11.768;2023-02-18T07:38:37;9.20;93.84
69543;SHT31;56762;49.494;11.768;2023-02-18T07:41:14;9.10;93.97
69543;SHT31;56762;49.494;11.768;2023-02-18T07:43:43;9.10;94.08
69543;SHT31;56762;49.494;11.768;2023-02-18T07:46:12;9.23;93.42
69543;SHT31;56762;49.494;11.768;2023-02-18T07:48:40;9.22;92.64
69543;SHT31;56762;49.494;11.768;2023-02-18T07:51:10;9.30;93.01
69543;SHT31;56762;49.494;11.768;2023-02-18T07:53:39;9.23;92.74
69543;SHT31;56762;49.494;11.768;2023-02-18T07:56:07;9.20;92.91
69543;SHT31;56762;49.494;11.768;2023-02-18T07:58:37;9.22;93.55
69543;SHT31;56762;49.494;11.768;2023-02-18T08:01:07;9.23;93.19
69543;SHT31;56762;49.494;11.768;2023-02-18T08:03:37;9.24;93.18
69543;SHT31;56762;49.494;11.768;2023-02-18T08:06:06;9.20;93.15
69543;SHT31;56762;49.494;11.768;2023-02-18T08:08:34;9.19;92.93
69543;SHT31;56762;49.494;11.768;2023-02-18T08:11:03;9.22;92.77
69543;SHT31;56762;49.494;11.768;2023-02-18T08:13:44;9.24;92.66
69543;SHT31;56762;49.494;11.768;2023-02-18T08:16:13;9.22;92.86
69543;SHT31;56762;49.494;11.768;2023-02-18T08:18:42;9.20;93.06
69543;SHT31;56762;49.494;11.768;2023-02-18T08:21:10;9.28;92.78
69543;SHT31;56762;49.494;11.768;2023-02-18T08:23:38;9.27;92.35
69543;SHT31;56762;49.494;11.768;2023-02-18T08:26:07;9.27;92.02
69543;SHT31;56762;49.494;11.768;2023-02-18T08:28:35;9.24;92.40
69543;SHT31;56762;49.494;11.768;2023-02-18T08:31:03;9.31;91.87
69543;SHT31;56762;49.494;11.768;2023-02-18T08:33:32;9.33;91.97
69543;SHT31;56762;49.494;11.768;2023-02-18T08:36:06;9.36;91.91
69543;SHT31;56762;49.494;11.768;2023-02-18T08:38:36;9.38;92.18
69543;SHT31;56762;49.494;11.768;2023-02-18T08:41:07;9.43;91.82
69543;SHT31;56762;49.494;11.768;2023-02-18T08:43:36;9.50;91.45
69543;SHT31;56762;49.494;11.768;2023-02-18T08:46:04;9.51;90.41
69543;SHT31;56762;49.494;11.768;2023-02-18T08:48:32;9.61;90.09
69543;SHT31;56762;49.494;11.768;2023-02-18T08:51:11;9.64;90.19
69543;SHT31;56762;49.494;11.768;2023-02-18T08:53:39;9.71;90.40
69543;SHT31;56762;49.494;11.768;2023-02-18T08:56:08;9.78;90.00
69543;SHT31;56762;49.494;11.768;2023-02-18T08:58:36;9.84;89.95
69543;SHT31;56762;49.494;11.768;2023-02-18T09:01:07;9.92;89.47
69543;SHT31;56762;49.494;11.768;2023-02-18T09:03:36;10.05;88.63
69543;SHT31;56762;49.494;11.768;2023-02-18T09:06:05;10.06;88.38
69543;SHT31;56762;49.494;11.768;2023-02-18T09:08:34;10.08;87.60
69543;SHT31;56762;49.494;11.768;2023-02-18T09:11:03;10.16;87.82
69543;SHT31;56762;49.494;11.768;2023-02-18T09:13:32;10.15;88.26
69543;SHT31;56762;49.494;11.768;2023-02-18T09:16:02;10.22;88.27
69543;SHT31;56762;49.494;11.768;2023-02-18T09:18:32;10.29;87.00
69543;SHT31;56762;49.494;11.768;2023-02-18T09:21:01;10.30;86.22
69543;SHT31;56762;49.494;11.768;2023-02-18T09:23:33;10.28;86.15
69543;SHT31;56762;49.494;11.768;2023-02-18T09:26:03;10.25;86.20
69543;SHT31;56762;49.494;11.768;2023-02-18T09:28:31;10.19;87.11
69543;SHT31;56762;49.494;11.768;2023-02-18T09:31:03;10.25;86.57
69543;SHT31;56762;49.494;11.768;2023-02-18T09:33:34;10.26;86.43
69543;SHT31;56762;49.494;11.768;2023-02-18T09:36:03;10.20;87.01
69543;SHT31;56762;49.494;11.768;2023-02-18T09:38:31;10.25;86.41
69543;SHT31;56762;49.494;11.768;2023-02-18T09:41:04;10.30;86.31
69543;SHT31;56762;49.494;11.768;2023-02-18T09:43:37;10.35;86.85
69543;SHT31;56762;49.494;11.768;2023-02-18T09:46:13;10.37;86.24
69543;SHT31;56762;49.494;11.768;2023-02-18T09:48:46;10.45;85.71
69543;SHT31;56762;49.494;11.768;2023-02-18T09:51:15;10.47;85.60
69543;SHT31;56762;49.494;11.768;2023-02-18T09:53:44;10.52;84.70
69543;SHT31;56762;49.494;11.768;2023-02-18T09:56:16;10.57;85.13
69543;SHT31;56762;49.494;11.768;2023-02-18T09:58:48;10.61;85.16
69543;SHT31;56762;49.494;11.768;2023-02-18T10:01:26;10.66;84.63
69543;SHT31;56762;49.494;11.768;2023-02-18T10:04:01;10.67;84.85
69543;SHT31;56762;49.494;11.768;2023-02-18T10:06:31;10.63;84.96
69543;SHT31;56762;49.494;11.768;2023-02-18T10:09:02;10.63;86.09
69543;SHT31;56762;49.494;11.768;2023-02-18T10:11:39;10.56;85.13
69543;SHT31;56762;49.494;11.768;2023-02-18T10:14:11;10.50;85.21
69543;SHT31;56762;49.494;11.768;2023-02-18T10:16:43;10.50;84.99
69543;SHT31;56762;49.494;11.768;2023-02-18T10:19:22;10.50;85.50
69543;SHT31;56762;49.494;11.768;2023-02-18T10:21:55;10.47;85.86
69543;SHT31;56762;49.494;11.768;2023-02-18T10:24:29;10.56;85.49
69543;SHT31;56762;49.494;11.768;2023-02-18T10:27:03;10.52;85.28
69543;SHT31;56762;49.494;11.768;2023-02-18T10:29:32;10.46;85.22
69543;SHT31;56762;49.494;11.768;2023-02-18T10:32:11;10.36;85.73
69543;SHT31;56762;49.494;11.768;2023-02-18T10:34:46;10.30;86.00
69543;SHT31;56762;49.494;11.768;2023-02-18T10:37:29;10.29;86.17
69543;SHT31;56762;49.494;11.768;2023-02-18T10:40:11;10.32;86.00
69543;SHT31;56762;49.494;11.768;2023-02-18T10:42:53;10.40;85.47
69543;SHT31;56762;49.494;11.768;2023-02-18T10:45:32;10.45;85.78
69543;SHT31;56762;49.494;11.768;2023-02-18T10:48:26;10.56;85.03
69543;SHT31;56762;49.494;11.768;2023-02-18T10:50:59;10.53;84.88
69543;SHT31;56762;49.494;11.768;2023-02-18T10:53:32;10.60;84.95
69543;SHT31;56762;49.494;11.768;2023-02-18T10:56:02;10.84;83.41
69543;SHT31;56762;49.494;11.768;2023-02-18T10:58:34;10.93;83.11
69543;SHT31;56762;49.494;11.768;2023-02-18T11:01:15;10.93;83.04
69543;SHT31;56762;49.494;11.768;2023-02-18T11:03:46;10.90;83.01
69543;SHT31;56762;49.494;11.768;2023-02-18T11:06:20;10.94;82.51
69543;SHT31;56762;49.494;11.768;2023-02-18T11:08:49;10.84;82.91
69543;SHT31;56762;49.494;11.768;2023-02-18T11:11:23;10.94;82.21
69543;SHT31;56762;49.494;11.768;2023-02-18T11:14:00;10.84;82.68
69543;SHT31;56762;49.494;11.768;2023-02-18T11:16:37;10.88;81.23
69543;SHT31;56762;49.494;11.768;2023-02-18T11:19:30;10.98;81.02
69543;SHT31;56762;49.494;11.768;2023-02-18T11:22:07;10.98;81.02
69543;SHT31;56762;49.494;11.768;2023-02-18T11:24:39;10.97;80.62
69543;SHT31;56762;49.494;11.768;2023-02-18T11:27:22;11.01;81.01
69543;SHT31;56762;49.494;11.768;2023-02-18T11:29:55;11.01;79.80
69543;SHT31;56762;49.494;11.768;2023-02-18T11:32:35;11.01;80.04
69543;SHT31;56762;49.494;11.768;2023-02-18T11:35:18;11.12;79.12
69543;SHT31;56762;49.494;11.768;2023-02-18T11:37:47;11.31;79.37
69543;SHT31;56762;49.494;11.768;2023-02-18T11:40:23;11.35;78.08
69543;SHT31;56762;49.494;11.768;2023-02-18T11:43:03;11.32;78.76
69543;SHT31;56762;49.494;11.768;2023-02-18T11:45:33;11.36;77.57
69543;SHT31;56762;49.494;11.768;2023-02-18T11:48:07;11.42;77.88
69543;SHT31;56762;49.494;11.768;2023-02-18T11:50:37;11.56;77.28
69543;SHT31;56762;49.494;11.768;2023-02-18T11:53:26;11.76;75.67
69543;SHT31;56762;49.494;11.768;2023-02-18T11:55:56;11.83;76.24
69543;SHT31;56762;49.494;11.768;2023-02-18T11:58:24;11.82;75.31
69543;SHT31;56762;49.494;11.768;2023-02-18T12:01:12;11.94;75.70
69543;SHT31;56762;49.494;11.768;2023-02-18T12:03:53;11.97;74.74
69543;SHT31;56762;49.494;11.768;2023-02-18T12:06:24;12.04;74.57
69543;SHT31;56762;49.494;11.768;2023-02-18T12:09:00;11.94;75.59
69543;SHT31;56762;49.494;11.768;2023-02-18T12:11:33;11.93;74.93
69543;SHT31;56762;49.494;11.768;2023-02-18T12:14:08;11.97;74.45
69543;SHT31;56762;49.494;11.768;2023-02-18T12:16:50;11.99;73.80
69543;SHT31;56762;49.494;11.768;2023-02-18T12:19:44;12.03;74.27
69543;SHT31;56762;49.494;11.768;2023-02-18T12:22:17;12.09;74.32
69543;SHT31;56762;49.494;11.768;2023-02-18T12:25:03;12.16;72.55
69543;SHT31;56762;49.494;11.768;2023-02-18T12:27:40;12.26;72.93
69543;SHT31;56762;49.494;11.768;2023-02-18T12:30:43;12.13;72.23
69543;SHT31;56762;49.494;11.768;2023-02-18T12:33:30;12.10;72.77
69543;SHT31;56762;49.494;11.768;2023-02-18T12:36:09;12.13;73.01
69543;SHT31;56762;49.494;11.768;2023-02-18T12:39:01;12.24;72.18
69543;SHT31;56762;49.494;11.768;2023-02-18T12:41:51;12.28;72.39
69543;SHT31;56762;49.494;11.768;2023-02-18T12:44:32;12.30;72.59
69543;SHT31;56762;49.494;11.768;2023-02-18T12:47:19;12.36;72.21
69543;SHT31;56762;49.494;11.768;2023-02-18T12:50:03;12.27;72.40
69543;SHT31;56762;49.494;11.768;2023-02-18T12:52:43;12.10;72.48
69543;SHT31;56762;49.494;11.768;2023-02-18T12:55:26;12.09;72.28
69543;SHT31;56762;49.494;11.768;2023-02-18T12:58:04;12.12;72.53
69543;SHT31;56762;49.494;11.768;2023-02-18T13:00:56;12.10;71.51
69543;SHT31;56762;49.494;11.768;2023-02-18T13:06:46;12.26;70.66
69543;SHT31;56762;49.494;11.768;2023-02-18T13:09:23;12.33;70.88
69543;SHT31;56762;49.494;11.768;2023-02-18T13:12:01;12.30;70.70
69543;SHT31;56762;49.494;11.768;2023-02-18T13:14:38;12.34;70.14
69543;SHT31;56762;49.494;11.768;2023-02-18T13:17:12;12.40;70.10
69543;SHT31;56762;49.494;11.768;2023-02-18T13:19:45;12.48;70.20
69543;SHT31;56762;49.494;11.768;2023-02-18T13:22:17;12.52;69.47
69543;SHT31;56762;49.494;11.768;2023-02-18T13:24:48;12.52;69.59
69543;SHT31;56762;49.494;11.768;2023-02-18T13:27:22;12.47;69.43
69543;SHT31;56762;49.494;11.768;2023-02-18T13:30:08;12.38;69.35
69543;SHT31;56762;49.494;11.768;2023-02-18T13:32:49;12.30;70.01
69543;SHT31;56762;49.494;11.768;2023-02-18T13:35:24;12.21;70.24
69543;SHT31;56762;49.494;11.768;2023-02-18T13:38:07;12.07;70.77
69543;SHT31;56762;49.494;11.768;2023-02-18T13:40:39;12.06;70.84
69543;SHT31;56762;49.494;11.768;2023-02-18T13:43:19;12.14;71.02
69543;SHT31;56762;49.494;11.768;2023-02-18T13:46:08;12.07;70.23
69543;SHT31;56762;49.494;11.768;2023-02-18T13:48:45;12.09;69.97
69543;SHT31;56762;49.494;11.768;2023-02-18T13:51:27;12.13;70.25
69543;SHT31;56762;49.494;11.768;2023-02-18T13:54:03;12.20;70.39
69543;SHT31;56762;49.494;11.768;2023-02-18T13:56:33;12.21;70.11
69543;SHT31;56762;49.494;11.768;2023-02-18T13:59:08;12.10;70.54
69543;SHT31;56762;49.494;11.768;2023-02-18T14:01:40;12.01;70.92
69543;SHT31;56762;49.494;11.768;2023-02-18T14:04:33;11.99;71.14
69543;SHT31;56762;49.494;11.768;2023-02-18T14:07:25;11.96;71.08
69543;SHT31;56762;49.494;11.768;2023-02-18T14:09:55;11.82;71.78
69543;SHT31;56762;49.494;11.768;2023-02-18T14:12:36;11.69;72.71
69543;SHT31;56762;49.494;11.768;2023-02-18T14:18:23;11.61;72.65
69543;SHT31;56762;49.494;11.768;2023-02-18T14:20:51;11.58;72.16
69543;SHT31;56762;49.494;11.768;2023-02-18T14:23:40;11.49;72.59
69543;SHT31;56762;49.494;11.768;2023-02-18T14:26:17;11.51;72.66
69543;SHT31;56762;49.494;11.768;2023-02-18T14:28:53;11.43;73.01
69543;SHT31;56762;49.494;11.768;2023-02-18T14:31:28;11.45;73.00
69543;SHT31;56762;49.494;11.768;2023-02-18T14:40:33;11.29;73.03
69543;SHT31;56762;49.494;11.768;2023-02-18T14:43:10;11.29;73.62
69543;SHT31;56762;49.494;11.768;2023-02-18T14:51:45;11.25;75.21
69543;SHT31;56762;49.494;11.768;2023-02-18T14:54:16;11.18;76.92
69543;SHT31;56762;49.494;11.768;2023-02-18T14:56:53;11.15;77.11
69543;SHT31;56762;49.494;11.768;2023-02-18T14:59:26;11.11;78.65
69543;SHT31;56762;49.494;11.768;2023-02-18T15:01:55;11.04;80.28
69543;SHT31;56762;49.494;11.768;2023-02-18T15:04:26;10.93;80.94
69543;SHT31;56762;49.494;11.768;2023-02-18T15:06:58;10.85;81.84
69543;SHT31;56762;49.494;11.768;2023-02-18T15:09:30;10.71;82.78
69543;SHT31;56762;49.494;11.768;2023-02-18T15:12:00;10.66;82.74
69543;SHT31;56762;49.494;11.768;2023-02-18T15:14:38;10.57;83.39
69543;SHT31;56762;49.494;11.768;2023-02-18T15:17:13;10.47;84.10
69543;SHT31;56762;49.494;11.768;2023-02-18T15:19:43;10.42;83.95
69543;SHT31;56762;49.494;11.768;2023-02-18T15:22:16;10.45;84.03
69543;SHT31;56762;49.494;11.768;2023-02-18T15:24:48;10.36;83.67
69543;SHT31;56762;49.494;11.768;2023-02-18T15:27:18;10.23;84.38
69543;SHT31;56762;49.494;11.768;2023-02-18T15:29:51;10.22;84.05
69543;SHT31;56762;49.494;11.768;2023-02-18T15:32:23;10.20;83.06
69543;SHT31;56762;49.494;11.768;2023-02-18T15:34:55;10.19;82.40
69543;SHT31;56762;49.494;11.768;2023-02-18T15:37:27;10.22;81.88
69543;SHT31;56762;49.494;11.768;2023-02-18T15:39:55;10.30;82.03
69543;SHT31;56762;49.494;11.768;2023-02-18T15:42:25;10.26;81.47
69543;SHT31;56762;49.494;11.768;2023-02-18T15:45:03;10.30;81.57
69543;SHT31;56762;49.494;11.768;2023-02-18T15:47:31;10.23;81.58
69543;SHT31;56762;49.494;11.768;2023-02-18T15:50:01;10.22;81.66
69543;SHT31;56762;49.494;11.768;2023-02-18T15:52:31;10.35;81.11
69543;SHT31;56762;49.494;11.768;2023-02-18T15:55:06;10.36;80.97
69543;SHT31;56762;49.494;11.768;2023-02-18T15:57:35;10.33;81.26
69543;SHT31;56762;49.494;11.768;2023-02-18T16:00:13;10.36;81.34
69543;SHT31;56762;49.494;11.768;2023-02-18T16:02:53;10.35;80.72
69543;SHT31;56762;49.494;11.768;2023-02-18T16:05:29;10.23;81.68
69543;SHT31;56762;49.494;11.768;2023-02-18T16:08:00;10.35;81.86
69543;SHT31;56762;49.494;11.768;2023-02-18T16:10:43;10.32;82.02
69543;SHT31;56762;49.494;11.768;2023-02-18T16:13:14;10.23;82.57
69543;SHT31;56762;49.494;11.768;2023-02-18T16:15:46;10.16;82.91
69543;SHT31;56762;49.494;11.768;2023-02-18T16:18:23;10.13;83.60
69543;SHT31;56762;49.494;11.768;2023-02-18T16:20:54;10.05;84.35